Time;durP1;ratioP1;P1;durP2;ratioP2;P2;SDS_P1;SDS_P2;PMS_P1;PMS_P2;Temp;Humidity;BMP_temperature;BMP_pressure;BME280_temperature;BME280_humidity;BME280_pressure;Samples;Min_cycle;Max_cycle;Signal;HPM_P1;HPM_P2
2021/11/12 00:13:29;;;;;;;3.95;3.55;;;18.20;53.50;;;;;;5003991;28;20081;-62
2021/11/12 00:15:56;;;;;;;4.95;4.38;;;18.20;53.40;;;;;;5004600;28;20053;-62
2021/11/12 00:18:24;;;;;;;4.35;3.92;;;18.20;53.40;;;;;;5005444;28;20488;-62
2021/11/12 00:20:49;;;;;;;5.45;4.45;;;18.20;53.40;;;;;;5004306;28;20547;-62
2021/11/12 00:23:16;;;;;;;5.03;4.53;;;18.20;53.30;;;;;;5003967;28;20034;-62
2021/11/12 00:25:42;;;;;;;4.43;4.03;;;18.20;53.30;;;;;;5004308;28;20176;-63
2021/11/12 00:28:08;;;;;;;4.78;3.55;;;18.20;53.30;;;;;;5004033;28;20033;-62
2021/11/12 00:30:51;;;;;;;4.70;4.03;;;18.20;53.20;;;;;;5003492;28;20105;-64
2021/11/12 00:38:41;;;;;;;4.68;4.18;;;18.20;53.20;;;;;;5006434;28;20032;-61
2021/11/12 00:41:21;;;;;;;4.82;4.03;;;18.20;53.20;;;;;;5005974;28;20666;-62
2021/11/12 00:43:52;;;;;;;5.68;4.10;;;18.20;53.20;;;;;;5003514;28;20499;-61
2021/11/12 00:46:23;;;;;;;4.63;4.20;;;18.20;53.20;;;;;;5006193;28;20037;-61
2021/11/12 00:48:52;;;;;;;4.68;4.18;;;18.20;53.10;;;;;;5007184;28;20080;-61
2021/11/12 00:51:25;;;;;;;5.40;4.63;;;18.20;53.10;;;;;;5006852;28;20041;-62
2021/11/12 00:53:53;;;;;;;5.03;4.47;;;18.20;53.10;;;;;;5007273;28;20033;-61
2021/11/12 00:56:20;;;;;;;4.22;3.80;;;18.20;53.10;;;;;;5005947;28;20044;-62
2021/11/12 00:58:46;;;;;;;4.47;4.07;;;18.20;53.10;;;;;;5006880;28;20739;-61
2021/11/12 01:01:12;;;;;;;4.72;4.18;;;18.10;53.10;;;;;;5007439;28;20041;-61
2021/11/12 01:03:38;;;;;;;5.10;4.32;;;18.20;53.10;;;;;;5006792;28;20432;-60
2021/11/12 01:06:04;;;;;;;5.40;4.05;;;18.10;53.10;;;;;;5006257;28;20183;-62
2021/11/12 01:08:30;;;;;;;4.53;4.10;;;18.10;53.10;;;;;;5007233;28;20492;-61
2021/11/12 01:10:55;;;;;;;4.97;4.35;;;18.10;53.10;;;;;;5007312;28;20534;-62
2021/11/12 01:13:21;;;;;;;5.15;4.65;;;18.10;53.10;;;;;;5006471;28;20034;-62
2021/11/12 01:15:47;;;;;;;4.90;4.40;;;18.00;53.10;;;;;;5006788;28;20025;-62
2021/11/12 01:18:13;;;;;;;5.78;5.22;;;18.10;53.10;;;;;;5006684;28;20120;-61
2021/11/12 01:20:39;;;;;;;4.93;4.40;;;18.00;53.10;;;;;;5006605;28;20032;-61
2021/11/12 01:23:05;;;;;;;5.30;4.50;;;18.00;53.20;;;;;;5007155;28;20568;-61
2021/11/12 01:25:31;;;;;;;5.30;4.78;;;18.00;53.30;;;;;;5006491;28;20037;-58
2021/11/12 01:27:57;;;;;;;5.97;4.38;;;18.00;53.30;;;;;;5006393;28;20076;-61
2021/11/12 01:30:23;;;;;;;5.00;4.43;;;17.90;53.40;;;;;;5006875;28;20064;-61
2021/11/12 01:32:49;;;;;;;5.20;4.68;;;17.90;53.40;;;;;;5006746;28;20058;-61
2021/11/12 01:35:17;;;;;;;6.93;4.68;;;17.90;53.50;;;;;;5004685;28;20409;-61
2021/11/12 01:37:44;;;;;;;5.03;4.45;;;17.80;53.50;;;;;;5006502;28;20017;-59
2021/11/12 01:40:18;;;;;;;5.28;4.13;;;17.80;53.50;;;;;;5006562;28;20017;-57
2021/11/12 01:42:54;;;;;;;4.97;4.38;;;17.80;53.70;;;;;;5006126;28;20099;-61
2021/11/12 01:45:28;;;;;;;7.57;4.78;;;17.80;53.80;;;;;;5006311;28;20014;-61
2021/11/12 01:50:40;;;;;;;5.28;4.78;;;17.70;53.70;;;;;;5006927;28;20115;-61
2021/11/12 01:53:12;;;;;;;5.18;4.68;;;17.70;53.80;;;;;;5005916;28;20378;-60
2021/11/12 01:55:45;;;;;;;5.38;4.88;;;17.70;53.80;;;;;;5005048;28;20045;-61
2021/11/12 02:00:45;;;;;;;5.00;4.28;;;17.60;54.00;;;;;;5003574;28;20033;-60
2021/11/12 02:03:10;;;;;;;6.07;4.68;;;17.60;54.00;;;;;;5005746;28;20026;-61
2021/11/12 02:05:36;;;;;;;5.00;4.38;;;17.60;54.00;;;;;;5005349;28;20041;-60
2021/11/12 02:08:02;;;;;;;4.72;4.28;;;17.70;54.70;;;;;;5006083;28;20539;-61
2021/11/12 02:10:28;;;;;;;5.10;4.60;;;17.70;54.10;;;;;;5005695;28;20126;-61
2021/11/12 02:15:40;;;;;;;5.63;4.20;;;17.70;54.00;;;;;;5004488;28;20105;-59
2021/11/12 02:18:13;;;;;;;5.18;4.68;;;17.70;54.00;;;;;;5005781;28;20025;-58
2021/11/12 02:20:52;;;;;;;5.63;4.75;;;17.80;54.00;;;;;;5005972;28;20105;-61
2021/11/12 02:23:18;;;;;;;5.50;5.00;;;17.80;53.90;;;;;;5004489;28;20018;-61
2021/11/12 02:25:45;;;;;;;5.57;4.97;;;17.90;53.90;;;;;;5005437;28;20682;-61
2021/11/12 02:28:13;;;;;;;6.47;4.47;;;17.80;53.90;;;;;;5004820;28;20477;-61
2021/11/12 02:30:40;;;;;;;5.70;5.10;;;17.80;53.80;;;;;;5005349;28;20455;-58
2021/11/12 02:33:08;;;;;;;5.72;5.07;;;17.90;53.90;;;;;;5004134;28;20036;-61
2021/11/12 02:35:36;;;;;;;4.95;4.43;;;17.90;53.80;;;;;;5005169;28;20076;-61
2021/11/12 02:38:03;;;;;;;4.80;4.40;;;17.90;53.80;;;;;;5004448;28;20040;-61
2021/11/12 02:40:30;;;;;;;5.22;4.72;;;18.00;53.80;;;;;;5001320;28;20088;-58
2021/11/12 02:42:55;;;;;;;5.13;4.40;;;17.90;53.70;;;;;;5004126;28;20081;-61
2021/11/12 02:45:21;;;;;;;5.45;4.90;;;18.00;53.70;;;;;;5005361;28;20038;-61
2021/11/12 02:47:47;;;;;;;4.97;4.30;;;18.00;53.60;;;;;;5005322;28;20026;-57
2021/11/12 02:50:15;;;;;;;6.95;4.65;;;18.00;53.60;;;;;;5004869;28;20532;-58
2021/11/12 02:52:42;;;;;;;5.78;4.32;;;18.10;53.40;;;;;;5005190;28;20104;-62
2021/11/12 02:55:07;;;;;;;5.53;4.95;;;18.10;53.40;;;;;;4996427;28;20033;-61
2021/11/12 02:57:35;;;;;;;4.80;4.22;;;18.10;53.40;;;;;;5005311;28;20036;-60
2021/11/12 03:00:02;;;;;;;4.90;4.50;;;18.10;53.30;;;;;;5005256;28;20062;-61
2021/11/12 03:02:29;;;;;;;5.72;5.03;;;18.10;53.20;;;;;;5005303;28;20512;-61
2021/11/12 03:04:55;;;;;;;4.97;4.57;;;18.10;53.10;;;;;;5004332;28;20088;-61
2021/11/12 03:07:20;;;;;;;5.95;5.05;;;18.10;53.00;;;;;;5005075;28;20627;-61
2021/11/12 03:09:46;;;;;;;6.00;4.53;;;18.20;53.00;;;;;;5019708;23;20065;-67
2021/11/12 03:12:11;;;;;;;5.40;4.90;;;18.10;52.90;;;;;;5017969;28;20018;-68
2021/11/12 03:14:37;;;;;;;4.93;4.43;;;18.20;52.90;;;;;;5002845;28;20026;-66
2021/11/12 03:17:03;;;;;;;4.85;4.30;;;18.10;52.80;;;;;;5003672;28;20159;-66
2021/11/12 03:19:29;;;;;;;5.20;4.65;;;18.10;52.80;;;;;;5003000;28;20061;-67
2021/11/12 03:22:01;;;;;;;5.05;4.55;;;18.10;52.80;;;;;;4999538;28;20022;-66
2021/11/12 03:24:33;;;;;;;5.60;4.75;;;18.10;52.80;;;;;;5002183;28;20038;-66
2021/11/12 03:59:55;;;;;;;6.30;5.20;;;18.00;52.80;;;;;;5002968;28;20037;-65
2021/11/12 04:02:43;;;;;;;5.40;4.90;;;17.90;52.80;;;;;;5002536;28;20064;-65
2021/11/12 04:05:21;;;;;;;5.95;5.35;;;17.90;52.80;;;;;;5003054;28;20550;-65
2021/11/12 04:17:10;;;;;;;5.72;5.22;;;17.90;52.90;;;;;;4987499;28;20022;-65
2021/11/12 04:21:37;;;;;;;6.55;5.40;;;17.80;53.00;;;;;;5001835;28;20163;-66
2021/11/12 04:41:19;;;;;;;6.30;5.45;;;17.70;53.30;;;;;;4990495;28;20474;-65
2021/11/12 04:49:28;;;;;;;9.45;6.78;;;17.60;53.50;;;;;;5002159;28;20033;-65
2021/11/12 05:11:06;;;;;;;10.52;7.70;;;17.50;53.90;;;;;;5002319;28;20068;-65
2021/11/12 05:51:38;;;;;;;17.48;9.30;;;17.50;54.90;;;;;;5019992;28;20389;-66
2021/11/12 05:56:51;;;;;;;18.15;9.98;;;17.50;55.40;;;;;;5010370;28;20068;-68
2021/11/12 05:59:16;;;;;;;17.70;9.60;;;17.50;55.40;;;;;;5004640;28;20042;-59
2021/11/12 06:01:43;;;;;;;15.02;8.98;;;17.50;55.40;;;;;;5001194;28;20524;-65
2021/11/12 06:04:08;;;;;;;21.38;10.55;;;17.50;55.40;;;;;;4998130;28;20018;-62
2021/11/12 06:06:34;;;;;;;26.50;10.63;;;17.50;55.50;;;;;;5003424;28;20698;-62
2021/11/12 06:09:00;;;;;;;14.65;9.95;;;17.40;55.50;;;;;;5001987;28;20034;-65
2021/11/12 06:11:27;;;;;;;22.17;9.48;;;17.40;55.50;;;;;;5004772;28;20054;-64
2021/11/12 06:13:54;;;;;;;16.92;9.77;;;17.40;55.40;;;;;;5004191;28;20025;-60
2021/11/12 06:16:20;;;;;;;16.60;9.07;;;17.40;55.50;;;;;;5004878;28;20119;-62
2021/11/12 06:18:45;;;;;;;13.57;9.90;;;17.40;55.40;;;;;;5005698;28;20684;-65
2021/11/12 06:21:11;;;;;;;17.65;9.57;;;17.40;55.40;;;;;;4985632;28;20022;-68
2021/11/12 06:23:37;;;;;;;15.63;9.98;;;17.40;55.30;;;;;;5003530;28;20423;-66
2021/11/12 06:26:03;;;;;;;18.33;10.13;;;17.40;55.20;;;;;;4997625;28;20034;-66
2021/11/12 06:28:29;;;;;;;17.17;10.07;;;17.40;55.10;;;;;;5002345;28;20034;-67
2021/11/12 06:30:56;;;;;;;15.77;9.85;;;17.40;55.10;;;;;;5000538;28;20042;-65
2021/11/12 06:33:22;;;;;;;23.83;12.88;;;17.50;55.10;;;;;;5002657;28;20037;-63
2021/11/12 06:35:48;;;;;;;23.40;13.82;;;17.40;55.90;;;;;;4996026;28;20709;-61
2021/11/12 06:38:16;;;;;;;19.63;12.30;;;17.40;56.40;;;;;;5003407;28;20040;-57
2021/11/12 06:40:41;;;;;;;28.95;13.48;;;17.40;56.50;;;;;;5002790;28;20049;-62
2021/11/12 06:43:20;;;;;;;22.77;13.25;;;17.40;56.40;;;;;;5005384;28;20477;-63
2021/11/12 06:51:14;;;;;;;34.22;18.08;;;17.50;55.40;;;;;;5005583;28;20040;-64
2021/11/12 06:53:40;;;;;;;64.65;35.28;;;17.40;55.00;;;;;;5005727;28;20117;-70
2021/11/12 06:56:05;;;;;;;61.45;36.05;;;17.40;54.80;;;;;;5005228;28;20125;-65
2021/11/12 06:58:31;;;;;;;54.28;32.47;;;17.50;54.60;;;;;;5006806;28;20034;-65
2021/11/12 07:00:56;;;;;;;55.70;31.80;;;17.50;54.50;;;;;;5005940;28;20471;-65
2021/11/12 07:03:23;;;;;;;47.40;28.38;;;17.50;54.60;;;;;;5004580;28;20108;-67
2021/11/12 07:05:49;;;;;;;47.08;26.98;;;17.40;54.60;;;;;;5001100;28;20515;-63
2021/11/12 07:08:15;;;;;;;42.55;27.48;;;17.40;54.60;;;;;;5002193;28;20026;-66
2021/11/12 07:10:40;;;;;;;42.50;25.55;;;17.40;54.60;;;;;;5002380;28;20049;-67
2021/11/12 07:13:06;;;;;;;36.78;22.27;;;17.40;54.40;;;;;;5002015;28;20044;-66
2021/11/12 07:15:31;;;;;;;36.22;23.50;;;17.40;54.40;;;;;;5002520;28;20030;-67
2021/11/12 07:17:57;;;;;;;32.97;21.88;;;17.50;55.10;;;;;;5001229;28;20038;-64
2021/11/12 07:20:22;;;;;;;30.42;21.02;;;17.60;54.20;;;;;;5016880;28;20044;-67
2021/11/12 07:22:48;;;;;;;28.98;19.30;;;17.70;54.00;;;;;;5002675;28;20034;-60
2021/11/12 07:25:14;;;;;;;27.25;18.00;;;17.80;53.50;;;;;;5016837;28;20050;-60
2021/11/12 07:27:39;;;;;;;25.52;17.20;;;17.90;53.00;;;;;;5001795;28;20065;-61
2021/11/12 07:30:08;;;;;;;26.17;18.35;;;17.90;52.60;;;;;;5001467;28;20061;-63
2021/11/12 07:32:33;;;;;;;23.17;16.98;;;17.90;52.20;;;;;;5001658;28;20120;-62
2021/11/12 07:34:59;;;;;;;21.08;16.38;;;17.90;51.90;;;;;;4999099;28;20125;-63
2021/11/12 07:37:28;;;;;;;23.25;16.42;;;18.00;51.70;;;;;;5001391;28;20036;-64
2021/11/12 07:39:55;;;;;;;22.23;15.35;;;18.00;51.40;;;;;;5001832;28;20475;-64
2021/11/12 07:42:28;;;;;;;16.40;14.40;;;18.00;51.10;;;;;;5002297;28;20034;-64
2021/11/12 07:45:03;;;;;;;18.55;14.40;;;18.00;51.00;;;;;;5001494;28;20038;-64
2021/11/12 07:47:29;;;;;;;;;;;18.00;50.90;;;;;;5002272;28;20178;-64
2021/11/12 07:49:58;;;;;;;16.63;12.75;;;18.00;51.00;;;;;;5001187;28;19913;-64
2021/11/12 07:52:27;;;;;;;15.18;12.07;;;18.00;50.80;;;;;;5001840;28;20124;-64
2021/11/12 07:54:53;;;;;;;14.43;11.07;;;18.00;50.80;;;;;;5001300;28;20038;-64
2021/11/12 07:57:18;;;;;;;14.98;12.18;;;18.00;50.80;;;;;;4983998;28;20459;-65
2021/11/12 07:59:44;;;;;;;16.52;11.75;;;18.00;50.90;;;;;;4983941;28;20026;-61
2021/11/12 08:02:11;;;;;;;14.02;10.60;;;18.00;50.90;;;;;;4999691;28;20132;-65
2021/11/12 08:04:37;;;;;;;15.20;10.68;;;18.00;50.90;;;;;;5001031;28;20176;-64
2021/11/12 08:07:02;;;;;;;14.10;10.50;;;18.00;51.00;;;;;;5001095;28;20133;-58
2021/11/12 08:09:35;;;;;;;12.45;10.15;;;18.00;51.10;;;;;;5001226;28;20052;-62
2021/11/12 08:12:09;;;;;;;12.32;10.20;;;18.00;51.30;;;;;;5001481;28;20034;-59
2021/11/12 08:17:30;;;;;;;16.13;10.65;;;18.00;51.40;;;;;;4999602;28;20396;-65
2021/11/12 08:20:03;;;;;;;13.02;9.57;;;18.00;51.40;;;;;;4999422;28;20034;-65
2021/11/12 08:22:35;;;;;;;12.27;9.65;;;18.00;51.40;;;;;;5005519;28;20308;-64
2021/11/12 08:30:46;;;;;;;16.40;10.15;;;17.90;51.80;;;;;;5001449;28;20029;-62
2021/11/12 08:33:22;;;;;;;16.17;9.50;;;18.00;52.00;;;;;;5001409;28;20068;-65
2021/11/12 08:38:33;;;;;;;13.90;9.82;;;17.90;51.50;;;;;;5001161;28;20072;-65
2021/11/12 08:41:11;;;;;;;12.43;9.38;;;17.90;51.20;;;;;;5000938;28;20483;-64
2021/11/12 08:43:44;;;;;;;11.48;9.82;;;17.90;51.10;;;;;;5000488;28;20026;-62
2021/11/12 08:48:50;;;;;;;10.75;8.68;;;17.90;51.10;;;;;;5000958;28;20044;-62
2021/11/12 08:51:18;;;;;;;9.60;8.27;;;17.90;51.10;;;;;;5001217;28;20231;-65
2021/11/12 08:53:45;;;;;;;12.38;8.35;;;17.90;51.20;;;;;;5003125;28;20030;-65
2021/11/12 08:56:14;;;;;;;10.77;8.50;;;17.90;51.20;;;;;;5003256;28;20513;-64
2021/11/12 08:58:44;;;;;;;10.43;8.45;;;17.90;51.20;;;;;;5003096;28;20321;-65
2021/11/12 09:01:10;;;;;;;11.00;8.55;;;17.80;51.30;;;;;;5005141;28;20506;-65
2021/11/12 09:03:36;;;;;;;9.15;8.05;;;17.80;51.30;;;;;;5004508;28;20381;-65
2021/11/12 09:06:02;;;;;;;9.90;8.13;;;17.80;51.40;;;;;;5003092;28;20085;-65
2021/11/12 09:08:28;;;;;;;9.23;7.80;;;17.80;51.40;;;;;;5003499;28;20684;-65
2021/11/12 09:10:53;;;;;;;12.65;8.23;;;17.80;51.40;;;;;;5008230;23;20046;-62
2021/11/12 09:13:22;;;;;;;9.07;7.72;;;17.80;51.60;;;;;;5002195;28;20033;-61
2021/11/12 09:16:05;;;;;;;8.85;7.82;;;17.80;51.50;;;;;;5018795;28;20679;-61
2021/11/12 09:18:31;;;;;;;10.27;7.47;;;17.80;51.60;;;;;;5023237;28;20595;-62
2021/11/12 09:20:56;;;;;;;8.68;7.47;;;17.80;51.60;;;;;;5020395;28;20037;-63
2021/11/12 09:23:22;;;;;;;8.57;7.78;;;17.80;51.70;;;;;;5009382;28;20475;-62
2021/11/12 09:25:47;;;;;;;8.63;7.68;;;17.80;51.80;;;;;;5004164;28;20038;-62
2021/11/12 09:28:13;;;;;;;9.13;7.63;;;17.80;51.90;;;;;;5008187;28;20088;-61
2021/11/12 09:30:39;;;;;;;8.35;7.53;;;17.70;51.80;;;;;;5011329;28;20535;-59
2021/11/12 09:33:05;;;;;;;8.90;8.10;;;17.70;52.00;;;;;;5004701;28;20034;-61
2021/11/12 09:35:30;;;;;;;8.35;7.53;;;17.70;52.00;;;;;;5022795;28;20032;-62
2021/11/12 09:37:56;;;;;;;9.10;8.10;;;17.70;52.20;;;;;;5013545;28;20034;-62
2021/11/12 09:40:21;;;;;;;8.77;7.88;;;17.60;52.30;;;;;;5015359;28;20037;-63
2021/11/12 09:42:47;;;;;;;9.43;8.20;;;17.60;52.40;;;;;;5018718;28;20467;-62
2021/11/12 09:45:13;;;;;;;8.60;7.72;;;17.50;52.60;;;;;;5018773;28;20064;-62
2021/11/12 09:47:39;;;;;;;8.88;7.97;;;17.50;53.30;;;;;;5022980;28;20029;-61
2021/11/12 09:50:07;;;;;;;9.00;8.07;;;17.50;52.70;;;;;;5022710;28;20076;-62
2021/11/12 09:52:32;;;;;;;9.00;7.78;;;17.50;52.70;;;;;;5014266;28;20196;-61
2021/11/12 09:54:58;;;;;;;8.93;8.02;;;17.50;52.80;;;;;;5018437;28;20614;-63
2021/11/12 09:57:23;;;;;;;8.82;7.90;;;17.50;52.90;;;;;;5017000;28;20034;-61
2021/11/12 09:59:58;;;;;;;8.43;7.35;;;17.50;53.00;;;;;;5009959;28;20037;-61
2021/11/12 10:02:26;;;;;;;7.88;7.20;;;17.50;52.90;;;;;;5012691;28;20091;-62
2021/11/12 10:04:52;;;;;;;9.07;8.02;;;17.50;52.90;;;;;;5020142;28;20029;-61
2021/11/12 10:07:17;;;;;;;7.95;7.20;;;17.50;52.80;;;;;;5016875;28;20079;-62
2021/11/12 10:09:44;;;;;;;10.43;7.43;;;17.50;52.80;;;;;;5020496;28;20507;-61
2021/11/12 10:12:10;;;;;;;8.75;7.75;;;17.60;52.80;;;;;;5011472;28;20045;-61
2021/11/12 10:14:51;;;;;;;8.50;7.35;;;17.60;52.80;;;;;;5013675;28;20033;-62
2021/11/12 10:17:18;;;;;;;7.90;7.10;;;17.70;52.80;;;;;;5007897;28;20509;-62
2021/11/12 10:19:48;;;;;;;7.80;7.03;;;17.70;52.70;;;;;;5001857;28;20072;-62
2021/11/12 10:22:17;;;;;;;8.27;7.40;;;17.70;52.60;;;;;;5019328;28;20033;-62
2021/11/12 10:24:43;;;;;;;8.15;7.35;;;17.80;52.70;;;;;;5002472;28;20045;-61
2021/11/12 10:27:19;;;;;;;9.25;8.18;;;17.80;52.60;;;;;;5003000;28;20033;-63
2021/11/12 10:29:46;;;;;;;7.40;6.70;;;17.90;52.60;;;;;;5008998;28;20033;-61
2021/11/12 10:32:19;;;;;;;8.75;7.85;;;17.90;52.60;;;;;;5016889;28;20052;-63
2021/11/12 10:34:46;;;;;;;8.82;7.93;;;17.90;52.60;;;;;;5002151;28;20034;-63
2021/11/12 10:37:19;;;;;;;8.82;7.22;;;17.90;52.60;;;;;;5007772;28;20064;-63
2021/11/12 10:39:50;;;;;;;8.43;7.50;;;17.90;52.60;;;;;;5013105;28;20029;-62
2021/11/12 10:42:18;;;;;;;7.63;6.93;;;17.90;52.60;;;;;;5021987;28;20041;-63
2021/11/12 10:44:48;;;;;;;7.93;7.13;;;17.90;52.70;;;;;;5012992;28;20033;-62
2021/11/12 10:47:15;;;;;;;7.38;6.68;;;17.90;52.70;;;;;;5012896;28;20044;-62
2021/11/12 10:49:42;;;;;;;7.82;7.03;;;17.90;52.70;;;;;;5014890;28;20037;-63
2021/11/12 10:52:16;;;;;;;9.10;7.30;;;18.00;52.70;;;;;;5018121;28;20029;-63
2021/11/12 10:55:08;;;;;;;9.35;7.25;;;18.00;52.70;;;;;;5007383;28;20539;-62
2021/11/12 10:57:35;;;;;;;7.70;7.00;;;18.00;52.80;;;;;;5009092;28;20081;-62
2021/11/12 11:00:23;;;;;;;7.78;6.95;;;18.00;52.80;;;;;;5012863;28;20030;-63
2021/11/12 11:02:49;;;;;;;7.57;6.78;;;17.90;52.80;;;;;;5006561;28;20036;-61
2021/11/12 11:05:19;;;;;;;7.70;7.00;;;18.00;52.90;;;;;;5007898;28;20139;-63
2021/11/12 11:07:59;;;;;;;7.90;7.10;;;17.90;52.90;;;;;;5002699;28;20114;-61
2021/11/12 11:10:33;;;;;;;8.30;7.50;;;18.00;52.90;;;;;;4970448;28;20035;-62
2021/11/12 11:13:08;;;;;;;7.82;6.97;;;18.00;52.90;;;;;;4981756;28;20137;-62
2021/11/12 11:15:35;;;;;;;7.30;6.63;;;18.00;52.90;;;;;;4981984;28;20541;-64
2021/11/12 11:18:18;;;;;;;7.80;7.07;;;18.00;52.90;;;;;;4982170;28;20481;-62
2021/11/12 11:20:51;;;;;;;8.32;7.43;;;18.00;52.90;;;;;;4982076;28;20125;-60
2021/11/12 11:23:17;;;;;;;7.40;6.70;;;17.90;52.90;;;;;;4997898;28;20037;-62
2021/11/12 11:25:53;;;;;;;7.38;6.65;;;18.00;52.90;;;;;;5021179;28;20404;-62
2021/11/12 11:28:19;;;;;;;8.43;7.63;;;17.90;52.90;;;;;;5019706;28;20034;-62
2021/11/12 11:30:45;;;;;;;8.07;7.25;;;18.00;52.90;;;;;;5008971;28;21061;-62
2021/11/12 11:33:11;;;;;;;7.90;7.07;;;18.00;52.90;;;;;;5009761;28;20132;-61
2021/11/12 11:35:37;;;;;;;8.98;7.45;;;18.00;52.90;;;;;;5003979;28;20041;-63
2021/11/12 11:38:02;;;;;;;7.47;6.78;;;18.00;52.90;;;;;;5002205;28;20037;-62
2021/11/12 11:40:28;;;;;;;7.82;7.13;;;18.00;53.00;;;;;;5013268;28;20496;-62
2021/11/12 11:42:53;;;;;;;7.90;7.10;;;18.00;52.90;;;;;;5000567;28;20618;-62
2021/11/12 11:45:19;;;;;;;8.20;6.72;;;18.00;52.90;;;;;;5009262;28;20090;-62
2021/11/12 11:47:44;;;;;;;8.48;7.10;;;18.00;53.00;;;;;;5014878;28;20040;-64
2021/11/12 11:50:24;;;;;;;7.68;6.90;;;18.00;53.00;;;;;;5007456;28;20102;-62
2021/11/12 11:52:49;;;;;;;7.70;6.90;;;18.00;53.10;;;;;;5000967;28;20038;-62
2021/11/12 11:55:52;;;;;;;7.80;7.00;;;17.90;53.00;;;;;;5000746;28;20145;-61
2021/11/12 11:58:32;;;;;;;8.02;7.25;;;17.90;53.10;;;;;;4988593;28;20030;-62
2021/11/12 12:01:16;;;;;;;7.60;6.63;;;17.90;53.20;;;;;;5010222;28;20038;-62
2021/11/12 12:03:43;;;;;;;7.40;6.70;;;17.90;53.20;;;;;;4978502;28;20105;-63
2021/11/12 12:06:09;;;;;;;7.80;7.00;;;17.90;53.20;;;;;;4981241;28;20026;-62
2021/11/12 12:08:46;;;;;;;7.47;6.78;;;17.90;53.20;;;;;;4981103;28;20034;-62
2021/11/12 12:11:17;;;;;;;7.07;6.40;;;17.90;53.30;;;;;;4979988;28;20042;-61
2021/11/12 12:13:42;;;;;;;8.40;7.18;;;17.90;53.20;;;;;;4981679;28;20418;-61
2021/11/12 12:16:08;;;;;;;7.32;6.63;;;17.90;53.20;;;;;;4981690;28;20053;-62
2021/11/12 12:18:37;;;;;;;6.43;5.82;;;17.90;53.30;;;;;;4994001;28;20038;-61
2021/11/12 12:21:49;;;;;;;7.75;7.03;;;17.90;53.30;;;;;;4981116;28;20101;-61
2021/11/12 12:30:59;;;;;;;6.60;6.00;;;17.80;53.40;;;;;;4982628;28;20034;-62
2021/11/12 13:18:55;;;;;;;6.97;6.28;;;17.80;53.60;;;;;;4965629;28;20046;-60
2021/11/12 13:24:33;;;;;;;6.32;5.78;;;17.80;53.90;;;;;;5021402;28;20170;-60
2021/11/12 13:27:02;;;;;;;5.63;5.13;;;17.90;54.00;;;;;;5002194;28;20041;-61
2021/11/12 13:29:27;;;;;;;5.72;5.22;;;17.90;53.90;;;;;;5027820;28;20026;-57
2021/11/12 13:32:03;;;;;;;6.20;5.60;;;17.90;53.90;;;;;;5009618;28;20080;-55
2021/11/12 13:34:49;;;;;;;6.25;5.60;;;17.80;53.90;;;;;;5005801;28;20432;-61
2021/11/12 13:37:33;;;;;;;6.20;5.63;;;17.90;53.90;;;;;;5012115;28;20039;-61
2021/11/12 13:40:09;;;;;;;7.63;6.45;;;17.90;53.90;;;;;;5007415;28;21800;-61
2021/11/12 13:42:48;;;;;;;6.22;5.65;;;17.90;53.90;;;;;;5011997;28;20040;-61
2021/11/12 13:45:22;;;;;;;7.03;5.78;;;17.90;53.90;;;;;;5023980;28;20063;-61
2021/11/12 13:48:11;;;;;;;5.63;5.13;;;17.90;53.90;;;;;;5019946;28;20038;-61
2021/11/12 13:50:39;;;;;;;5.90;5.32;;;17.90;53.90;;;;;;5008239;28;20030;-58
2021/11/12 13:53:05;;;;;;;5.40;4.90;;;18.00;53.90;;;;;;5007337;28;20037;-58
2021/11/12 13:55:33;;;;;;;5.85;5.28;;;18.00;54.00;;;;;;5020680;28;20444;-61
2021/11/12 13:58:00;;;;;;;5.78;5.25;;;18.00;54.00;;;;;;5000614;28;20524;-60
2021/11/12 14:00:29;;;;;;;6.68;5.47;;;17.90;53.90;;;;;;5003385;28;20060;-62
2021/11/12 14:03:07;;;;;;;6.30;5.72;;;18.00;54.00;;;;;;5010203;28;20281;-60
2021/11/12 14:05:38;;;;;;;7.97;5.22;;;18.00;53.90;;;;;;4983940;28;20509;-59
2021/11/12 14:08:06;;;;;;;5.60;5.00;;;18.00;53.90;;;;;;4986008;28;20038;-61
2021/11/12 14:10:38;;;;;;;5.78;5.10;;;17.90;53.90;;;;;;4983954;28;20548;-61
2021/11/12 14:13:05;;;;;;;5.25;4.75;;;18.00;53.90;;;;;;4986201;28;20065;-60
2021/11/12 14:15:40;;;;;;;5.90;5.35;;;18.00;53.90;;;;;;4983779;28;20551;-60
2021/11/12 14:18:42;;;;;;;5.37;4.87;;;18.00;53.90;;;;;;4970821;28;20052;-55
2021/11/12 14:23:55;;;;;;;5.43;4.55;;;18.00;53.90;;;;;;4995710;28;20052;-60
2021/11/12 14:27:01;;;;;;;6.38;4.93;;;18.00;53.90;;;;;;4975161;28;20512;-58
2021/11/12 14:29:59;;;;;;;5.43;4.93;;;18.00;53.90;;;;;;4988312;28;20034;-56
2021/11/12 14:44:24;;;;;;;6.20;5.60;;;18.00;54.00;;;;;;5016574;28;20088;-59
2021/11/12 14:47:04;;;;;;;6.28;5.40;;;18.00;53.90;;;;;;4960040;28;20568;-61
2021/11/12 14:49:24;;;;;;;5.68;5.03;;;18.00;53.90;;;;;;4991530;28;20030;-61
2021/11/12 14:54:27;;;;;;;6.68;5.70;;;18.00;54.00;;;;;;4989911;28;20089;-60
2021/11/12 14:56:53;;;;;;;6.40;5.80;;;18.00;54.00;;;;;;4963241;28;20068;-60
2021/11/12 14:59:19;;;;;;;5.80;5.30;;;17.90;54.00;;;;;;5016686;28;20026;-57
2021/11/12 15:01:45;;;;;;;5.63;5.13;;;18.00;54.00;;;;;;5010525;28;20442;-54
2021/11/12 15:04:10;;;;;;;6.18;5.55;;;18.00;54.00;;;;;;5010361;28;20026;-61
2021/11/12 15:06:36;;;;;;;6.75;5.18;;;18.00;54.00;;;;;;5002780;28;20415;-61
2021/11/12 15:09:05;;;;;;;7.65;6.88;;;18.00;54.00;;;;;;5018350;28;20497;-61
2021/11/12 15:11:32;;;;;;;6.07;5.47;;;18.00;54.00;;;;;;5022410;23;20057;31
2021/11/12 15:14:24;;;;;;;6.50;5.63;;;18.00;54.10;;;;;;4952952;28;20730;-67
2021/11/12 15:16:47;;;;;;;8.23;5.63;;;18.00;54.00;;;;;;4960853;28;20045;-66
2021/11/12 15:19:15;;;;;;;7.78;6.88;;;18.00;54.00;;;;;;4966819;28;20645;-67
2021/11/12 15:24:12;;;;;;;10.13;7.13;;;18.00;54.00;;;;;;4970085;28;20105;-66
2021/11/12 15:27:19;;;;;;;8.13;7.28;;;18.00;54.10;;;;;;4960594;28;20043;-65
2021/11/12 15:29:34;;;;;;;8.50;7.60;;;18.00;54.10;;;;;;4954303;28;20110;-65
2021/11/12 15:34:27;;;;;;;8.45;7.60;;;17.90;54.10;;;;;;4969438;28;20077;-67
2021/11/12 15:39:31;;;;;;;9.13;7.85;;;17.90;54.10;;;;;;4962776;28;20034;-67
2021/11/12 15:44:39;;;;;;;9.60;8.32;;;17.90;54.10;;;;;;4962063;28;20034;-64
2021/11/12 15:47:19;;;;;;;9.40;8.27;;;18.00;54.20;;;;;;4977036;28;20034;-65
2021/11/12 15:49:45;;;;;;;13.68;8.63;;;18.00;54.20;;;;;;4961236;28;20468;-66
2021/11/12 15:57:54;;;;;;;12.13;9.70;;;17.90;54.10;;;;;;4962120;28;20044;-66
2021/11/12 16:08:08;;;;;;;10.90;9.35;;;17.90;54.20;;;;;;4962396;28;20127;-65
2021/11/12 16:13:16;;;;;;;11.93;9.95;;;17.90;54.20;;;;;;4962055;28;20042;-65
2021/11/12 16:15:49;;;;;;;10.02;8.90;;;17.90;54.20;;;;;;4961606;28;20122;-66
2021/11/12 16:26:22;;;;;;;11.85;9.63;;;17.90;54.20;;;;;;4961403;28;20426;-66
2021/11/12 16:28:59;;;;;;;11.20;9.40;;;17.90;54.20;;;;;;4962500;28;20196;-65
2021/11/12 16:31:28;;;;;;;12.93;9.73;;;17.90;54.20;;;;;;4960530;28;20031;-67
2021/11/12 16:33:55;;;;;;;10.27;9.10;;;17.90;54.20;;;;;;4961765;28;20114;-65
2021/11/12 16:36:21;;;;;;;12.05;9.82;;;17.90;54.30;;;;;;4961707;28;20031;-65
2021/11/12 16:38:48;;;;;;;11.73;9.80;;;17.90;54.30;;;;;;4962133;28;20047;-65
2021/11/12 16:41:18;;;;;;;11.70;10.23;;;17.90;54.30;;;;;;4962564;28;20035;-65
2021/11/12 16:44:08;;;;;;;11.70;10.20;;;17.90;54.30;;;;;;4960059;28;20085;-64
2021/11/12 16:46:46;;;;;;;11.18;9.98;;;17.80;54.30;;;;;;4965181;28;20041;-66
2021/11/12 16:49:22;;;;;;;11.55;10.35;;;17.80;54.30;;;;;;4976833;28;20034;-67
2021/11/12 16:54:27;;;;;;;11.23;9.60;;;17.80;54.30;;;;;;4972037;28;20041;-67
2021/11/12 17:02:30;;;;;;;11.88;10.38;;;17.80;54.30;;;;;;4957851;28;20041;-65
2021/11/12 17:05:02;;;;;;;11.38;10.18;;;17.80;54.30;;;;;;4961788;28;20046;-66
2021/11/12 17:07:39;;;;;;;12.63;10.88;;;17.80;54.30;;;;;;4960444;28;20034;-67
2021/11/12 17:10:13;;;;;;;12.43;10.40;;;17.70;54.40;;;;;;4962276;28;20078;-67
2021/11/12 17:15:25;;;;;;;11.70;10.37;;;17.70;54.60;;;;;;4965016;28;20035;-65
2021/11/12 17:20:50;;;;;;;11.90;10.52;;;17.60;54.80;;;;;;4956376;28;20073;-65
2021/11/12 17:47:50;;;;;;;11.50;10.30;;;17.50;55.00;;;;;;4953015;28;20073;-65
2021/11/12 17:50:23;;;;;;;11.55;10.35;;;17.50;55.00;;;;;;4965294;28;20038;-65
2021/11/12 18:03:29;;;;;;;11.93;9.82;;;17.80;54.30;;;;;;4964368;28;20255;-65
2021/11/12 18:06:10;;;;;;;12.63;9.73;;;17.80;54.20;;;;;;4955957;28;20035;-65
2021/11/12 18:20:26;;;;;;;14.45;9.98;;;17.90;54.10;;;;;;4963186;28;20037;-64
2021/11/12 18:36:23;;;;;;;12.63;9.90;;;17.80;54.60;;;;;;4963798;28;20054;-61
2021/11/12 21:46:39;;;;;;;7.05;6.15;;;17.60;56.50;;;;;;4984588;28;20116;-52
2021/11/12 21:49:05;;;;;;;6.47;5.75;;;17.60;56.50;;;;;;4984990;28;20707;-55
2021/11/12 21:51:32;;;;;;;7.25;5.97;;;17.60;56.40;;;;;;4982390;28;20089;-51
2021/11/12 21:54:00;;;;;;;8.57;6.18;;;17.60;56.40;;;;;;4984862;28;20099;-55
2021/11/12 21:56:26;;;;;;;8.05;6.10;;;17.60;56.40;;;;;;4984537;28;20384;-52